createdAt,value
2023-05-08T00:02:11.039Z,11.55
2023-05-08T00:04:37.660Z,9.70
2023-05-08T00:09:43.231Z,10.25
2023-05-08T00:12:09.845Z,9.90
2023-05-08T00:14:36.356Z,9.95
2023-05-08T00:17:03.250Z,9.80
2023-05-08T00:19:29.865Z,9.65
2023-05-08T00:21:56.524Z,9.15
2023-05-08T00:24:23.077Z,9.32
2023-05-08T00:26:49.656Z,9.43
2023-05-08T00:29:16.260Z,9.50
2023-05-08T00:31:42.857Z,10.88
2023-05-08T00:34:09.407Z,9.70
2023-05-08T00:36:35.981Z,9.30
2023-05-08T00:39:02.570Z,10.95
2023-05-08T00:41:29.432Z,9.52
2023-05-08T00:43:55.982Z,10.52
2023-05-08T00:46:22.785Z,9.93
2023-05-08T00:48:49.328Z,9.25
2023-05-08T00:51:16.410Z,12.07
2023-05-08T00:53:44.504Z,8.52
2023-05-08T00:56:14.286Z,9.05
2023-05-08T00:58:42.184Z,8.30
2023-05-08T01:01:08.948Z,8.63
2023-05-08T01:03:36.294Z,9.25
2023-05-08T01:06:04.843Z,8.70
2023-05-08T01:08:32.279Z,9.75
2023-05-08T01:11:22.532Z,8.88
2023-05-08T01:14:07.850Z,10.05
2023-05-08T01:16:46.549Z,10.45
2023-05-08T01:19:48.737Z,10.55
2023-05-08T01:22:33.665Z,10.75
2023-05-08T01:25:09.405Z,8.75
2023-05-08T01:27:44.929Z,9.10
2023-05-08T01:30:45.490Z,8.05
2023-05-08T01:33:27.343Z,8.57
2023-05-08T01:36:00.596Z,7.97
2023-05-08T01:38:47.919Z,8.35
2023-05-08T01:41:25.056Z,9.00
2023-05-08T01:44:15.685Z,8.30
2023-05-08T01:46:48.017Z,8.98
2023-05-08T01:49:25.427Z,7.72
2023-05-08T01:52:03.335Z,8.07
2023-05-08T01:54:56.515Z,8.25
2023-05-08T01:57:26.799Z,8.13
2023-05-08T01:59:56.090Z,7.68
2023-05-08T02:02:23.320Z,8.75
2023-05-08T02:04:51.864Z,10.32
2023-05-08T02:07:22.593Z,7.75
2023-05-08T02:09:51.544Z,9.00
2023-05-08T02:12:19.666Z,8.60
2023-05-08T02:14:48.621Z,9.85
2023-05-08T02:17:18.641Z,7.93
2023-05-08T02:19:47.386Z,8.10
2023-05-08T02:22:15.235Z,9.30
2023-05-08T02:24:43.685Z,10.10
2023-05-08T02:27:12.365Z,7.55
2023-05-08T02:29:39.079Z,8.10
2023-05-08T02:32:08.805Z,7.78
2023-05-08T02:34:37.171Z,7.78
2023-05-08T02:37:05.867Z,8.90
2023-05-08T02:39:35.706Z,8.35
2023-05-08T02:42:03.960Z,9.35
2023-05-08T02:44:31.020Z,8.55
2023-05-08T02:47:04.228Z,8.10
2023-05-08T02:49:44.183Z,8.70
2023-05-08T02:52:19.172Z,8.95
2023-05-08T02:55:01.404Z,7.78
2023-05-08T02:57:34.150Z,13.15
2023-05-08T03:00:14.741Z,8.00
2023-05-08T03:02:48.288Z,8.27
2023-05-08T03:05:20.780Z,8.07
2023-05-08T03:07:55.964Z,7.28
2023-05-08T03:10:28.156Z,8.52
2023-05-08T03:12:56.934Z,8.53
2023-05-08T03:15:41.996Z,7.65
2023-05-08T03:18:12.528Z,8.55
2023-05-08T03:20:42.930Z,8.40
2023-05-08T03:23:12.461Z,7.45
2023-05-08T03:25:42.311Z,8.77
2023-05-08T03:28:09.976Z,7.68
2023-05-08T03:30:41.993Z,9.23
2023-05-08T03:33:11.564Z,8.00
2023-05-08T03:35:39.457Z,6.90
2023-05-08T03:38:06.971Z,8.15
2023-05-08T03:40:42.595Z,7.75
2023-05-08T03:43:10.204Z,7.93
2023-05-08T03:45:40.096Z,7.22
2023-05-08T03:48:08.814Z,7.70
2023-05-08T03:50:37.050Z,8.20
2023-05-08T03:53:04.001Z,7.38
2023-05-08T03:55:31.723Z,8.40
2023-05-08T03:58:05.983Z,8.40
2023-05-08T04:00:39.825Z,7.80
2023-05-08T04:03:27.728Z,7.45
2023-05-08T04:06:13.841Z,9.23
2023-05-08T04:08:48.320Z,8.13
2023-05-08T04:11:51.953Z,7.88
2023-05-08T04:14:21.399Z,7.70
2023-05-08T04:16:51.762Z,7.95
2023-05-08T04:19:24.811Z,8.32
2023-05-08T04:24:25.446Z,8.30
2023-05-08T04:26:52.265Z,7.93
2023-05-08T04:29:19.341Z,8.45
2023-05-08T04:31:46.751Z,13.23
2023-05-08T04:34:14.093Z,8.18
2023-05-08T04:36:40.759Z,8.85
2023-05-08T04:39:07.294Z,7.72
2023-05-08T04:41:35.109Z,7.78
2023-05-08T04:44:03.834Z,10.00
2023-05-08T04:46:30.445Z,8.07
2023-05-08T04:48:57.090Z,8.27
2023-05-08T04:51:23.498Z,8.38
2023-05-08T04:53:49.908Z,8.38
2023-05-08T04:56:16.466Z,8.95
2023-05-08T04:58:42.908Z,8.90
2023-05-08T05:01:09.543Z,8.32
2023-05-08T05:03:36.175Z,9.00
2023-05-08T05:06:02.827Z,7.78
2023-05-08T05:08:29.436Z,8.35
2023-05-08T05:10:56.110Z,8.30
2023-05-08T05:13:22.727Z,7.85
2023-05-08T05:15:51.421Z,9.85
2023-05-08T05:18:18.442Z,7.90
2023-05-08T05:20:44.940Z,10.38
2023-05-08T05:23:12.250Z,8.35
2023-05-08T05:25:38.913Z,8.13
2023-05-08T05:28:05.382Z,8.30
2023-05-08T05:30:31.905Z,9.63
2023-05-08T05:32:58.911Z,9.45
2023-05-08T05:35:25.763Z,8.70
2023-05-08T05:37:52.452Z,8.75
2023-05-08T05:40:19.040Z,9.25
2023-05-08T05:42:49.725Z,8.82
2023-05-08T05:45:16.198Z,9.40
2023-05-08T05:47:50.137Z,8.40
2023-05-08T05:50:21.350Z,8.25
2023-05-08T05:52:48.003Z,8.65
2023-05-08T05:55:14.738Z,9.73
2023-05-08T05:57:41.474Z,9.18
2023-05-08T06:00:08.879Z,9.85
2023-05-08T06:02:37.017Z,8.90
2023-05-08T06:05:04.887Z,10.10
2023-05-08T06:09:59.756Z,8.90
2023-05-08T06:12:27.956Z,8.45
2023-05-08T06:14:54.906Z,8.35
2023-05-08T06:17:22.238Z,9.88
2023-05-08T06:19:50.613Z,9.80
2023-05-08T06:22:18.426Z,8.45
2023-05-08T06:24:45.352Z,9.20
2023-05-08T06:27:13.329Z,8.55
2023-05-08T06:29:39.957Z,8.75
2023-05-08T06:32:06.646Z,9.52
2023-05-08T06:34:33.251Z,9.55
2023-05-08T06:36:59.869Z,9.10
2023-05-08T06:39:26.422Z,7.85
2023-05-08T06:41:53.304Z,7.85
2023-05-08T06:44:19.876Z,8.75
2023-05-08T06:46:46.478Z,10.40
2023-05-08T06:49:13.125Z,8.77
2023-05-08T06:51:39.721Z,8.00
2023-05-08T06:54:08.345Z,9.27
2023-05-08T06:56:35.649Z,8.45
2023-05-08T06:59:08.397Z,9.10
2023-05-08T07:01:37.411Z,9.10
2023-05-08T07:04:05.023Z,8.68
2023-05-08T07:06:31.586Z,8.68
2023-05-08T07:08:58.168Z,8.63
2023-05-08T07:11:24.870Z,10.27
2023-05-08T07:13:51.416Z,8.63
2023-05-08T07:16:18.045Z,8.50
2023-05-08T07:18:44.814Z,9.15
2023-05-08T07:21:11.372Z,7.90
2023-05-08T07:23:37.865Z,9.35
2023-05-08T07:26:04.521Z,10.25
2023-05-08T07:28:30.999Z,8.90
2023-05-08T07:30:57.736Z,8.80
2023-05-08T07:33:24.920Z,8.73
2023-05-08T07:35:51.478Z,8.82
2023-05-08T07:38:18.117Z,8.98
2023-05-08T07:40:45.882Z,13.57
2023-05-08T07:43:13.186Z,8.45
2023-05-08T07:45:39.646Z,8.93
2023-05-08T07:48:07.660Z,11.00
2023-05-08T07:50:34.421Z,10.35
2023-05-08T07:53:01.071Z,13.23
2023-05-08T07:55:27.553Z,8.50
2023-05-08T07:57:54.136Z,8.07
2023-05-08T08:00:20.802Z,8.55
2023-05-08T08:02:47.523Z,7.90
2023-05-08T08:05:14.334Z,8.82
2023-05-08T08:07:41.242Z,8.73
2023-05-08T08:10:08.464Z,9.00
2023-05-08T08:12:35.229Z,8.80
2023-05-08T08:15:01.760Z,8.10
2023-05-08T08:17:29.052Z,8.02
2023-05-08T08:19:56.463Z,8.60
2023-05-08T08:22:24.128Z,8.23
2023-05-08T08:24:52.385Z,9.73
2023-05-08T08:27:20.736Z,8.73
2023-05-08T08:29:47.302Z,9.15
2023-05-08T08:32:13.938Z,8.55
2023-05-08T08:34:40.502Z,10.90
2023-05-08T08:37:07.030Z,8.30
2023-05-08T08:39:34.538Z,9.38
2023-05-08T08:42:01.502Z,9.15
2023-05-08T08:44:28.316Z,9.77
2023-05-08T08:46:55.662Z,9.18
2023-05-08T08:49:29.813Z,8.23
2023-05-08T08:52:01.468Z,8.02
2023-05-08T08:54:31.530Z,8.02
2023-05-08T08:57:01.902Z,8.65
2023-05-08T08:59:29.940Z,10.63
2023-05-08T09:02:06.423Z,7.88
2023-05-08T09:04:33.106Z,8.77
2023-05-08T09:07:00.352Z,8.15
2023-05-08T09:09:28.819Z,9.45
2023-05-08T09:11:55.460Z,10.20
2023-05-08T09:14:22.105Z,8.95
2023-05-08T09:16:48.769Z,9.07
2023-05-08T09:19:16.320Z,8.90
2023-05-08T09:21:43.026Z,14.82
2023-05-08T09:24:09.958Z,10.05
2023-05-08T09:26:40.218Z,9.80
2023-05-08T09:29:09.668Z,10.38
2023-05-08T09:31:39.843Z,12.75
2023-05-08T09:34:11.207Z,9.20
2023-05-08T09:36:40.086Z,10.82
2023-05-08T09:39:11.749Z,7.60
2023-05-08T09:41:38.392Z,9.43
2023-05-08T09:44:09.864Z,8.98
2023-05-08T09:46:36.464Z,11.93
2023-05-08T09:49:03.937Z,11.43
2023-05-08T09:51:32.038Z,10.52
2023-05-08T09:54:00.449Z,11.07
2023-05-08T09:56:38.868Z,11.00
2023-05-08T09:59:22.203Z,10.80
2023-05-08T10:01:48.928Z,11.40
2023-05-08T10:04:15.486Z,11.77
2023-05-08T10:06:42.069Z,10.98
2023-05-08T10:09:15.748Z,12.13
2023-05-08T10:11:53.085Z,11.45
2023-05-08T10:14:20.468Z,11.35
2023-05-08T10:16:54.322Z,12.05
2023-05-08T10:19:25.438Z,10.85
2023-05-08T10:21:54.820Z,11.82
2023-05-08T10:24:41.647Z,13.65
2023-05-08T10:27:19.483Z,12.77
2023-05-08T10:29:56.932Z,12.80
2023-05-08T10:32:24.902Z,12.85
2023-05-08T10:35:00.127Z,11.65
2023-05-08T10:37:29.738Z,12.88
2023-05-08T10:39:58.245Z,12.60
2023-05-08T10:42:26.086Z,13.00
2023-05-08T10:44:53.861Z,12.93
2023-05-08T10:47:33.562Z,13.50
2023-05-08T10:50:17.484Z,12.05
2023-05-08T10:53:03.338Z,13.77
2023-05-08T10:55:32.230Z,14.07
2023-05-08T10:58:02.496Z,13.13
2023-05-08T11:00:51.873Z,14.57
2023-05-08T11:03:30.402Z,19.52
2023-05-08T11:05:59.773Z,14.90
2023-05-08T11:08:28.110Z,14.90
2023-05-08T11:11:05.154Z,12.50
2023-05-08T11:13:38.397Z,13.75
2023-05-08T11:16:11.000Z,13.75
2023-05-08T11:21:23.953Z,13.30
2023-05-08T11:23:57.971Z,15.57
2023-05-08T11:26:40.394Z,15.77
2023-05-08T11:29:17.117Z,15.40
2023-05-08T11:31:50.808Z,14.20
2023-05-08T11:34:41.925Z,16.83
2023-05-08T11:37:19.155Z,12.93
2023-05-08T11:39:46.424Z,13.00
2023-05-08T11:42:24.956Z,12.82
2023-05-08T11:45:08.216Z,15.27
2023-05-08T11:47:42.012Z,14.20
2023-05-08T11:50:09.816Z,13.15
2023-05-08T11:52:37.779Z,13.52
2023-05-08T11:55:06.217Z,12.38
2023-05-08T11:57:33.366Z,13.23
2023-05-08T12:00:08.008Z,12.80
2023-05-08T12:02:43.758Z,13.18
2023-05-08T12:05:11.633Z,10.48
2023-05-08T12:07:46.558Z,10.43
2023-05-08T12:12:53.604Z,11.27
2023-05-08T12:15:20.126Z,10.60
2023-05-08T12:17:47.053Z,9.88
2023-05-08T12:20:16.263Z,10.65
2023-05-08T12:22:50.589Z,9.48
2023-05-08T12:25:18.373Z,10.38
2023-05-08T12:27:45.524Z,8.88
2023-05-08T12:30:14.770Z,10.45
2023-05-08T12:32:42.445Z,9.60
2023-05-08T12:35:10.813Z,9.95
2023-05-08T12:37:37.408Z,9.30
2023-05-08T12:40:05.419Z,10.55
2023-05-08T12:42:50.999Z,8.85
2023-05-08T12:45:27.077Z,9.60
2023-05-08T12:47:58.200Z,8.55
2023-05-08T12:50:27.814Z,10.02
2023-05-08T12:52:54.433Z,8.85
2023-05-08T12:55:28.974Z,10.27
2023-05-08T12:58:15.103Z,8.93
2023-05-08T13:00:46.679Z,9.98
2023-05-08T13:03:21.710Z,9.45
2023-05-08T13:05:48.488Z,8.30
2023-05-08T13:08:15.082Z,7.95
2023-05-08T13:10:46.277Z,9.43
2023-05-08T13:13:18.639Z,8.80
2023-05-08T13:15:45.958Z,8.18
2023-05-08T13:18:13.126Z,8.05
2023-05-08T13:20:40.286Z,7.03
2023-05-08T13:23:07.482Z,9.30
2023-05-08T13:25:36.149Z,5.15
2023-05-08T13:28:03.716Z,5.35
2023-05-08T13:30:30.288Z,7.38
2023-05-08T13:32:57.093Z,4.85
2023-05-08T13:35:24.959Z,7.07
2023-05-08T13:37:51.685Z,8.35
2023-05-08T13:40:18.231Z,7.40
2023-05-08T13:42:44.717Z,9.10
2023-05-08T13:45:13.345Z,8.23
2023-05-08T13:47:43.208Z,7.15
2023-05-08T13:50:11.278Z,7.78
2023-05-08T13:52:39.045Z,8.40
2023-05-08T13:55:13.197Z,7.20
2023-05-08T13:57:40.570Z,6.57
2023-05-08T14:00:09.423Z,6.30
2023-05-08T14:02:37.513Z,5.30
2023-05-08T14:05:05.683Z,5.30
2023-05-08T14:07:32.281Z,6.53
2023-05-08T14:09:58.843Z,5.18
2023-05-08T14:12:25.421Z,5.65
2023-05-08T14:14:51.930Z,4.53
2023-05-08T14:17:18.434Z,4.70
2023-05-08T14:19:46.198Z,5.35
2023-05-08T14:22:13.008Z,3.20
2023-05-08T14:24:39.957Z,5.20
2023-05-08T14:27:06.633Z,3.17
2023-05-08T14:29:34.198Z,2.40
2023-05-08T14:32:01.471Z,3.10
2023-05-08T14:34:28.107Z,4.80
2023-05-08T14:36:54.984Z,4.15
2023-05-08T14:39:21.885Z,5.85
2023-05-08T14:42:05.803Z,3.80
2023-05-08T14:44:35.108Z,3.58
2023-05-08T14:47:01.627Z,4.22
2023-05-08T14:49:37.298Z,5.53
2023-05-08T14:52:05.668Z,4.40
2023-05-08T14:54:32.396Z,4.22
2023-05-08T14:56:59.035Z,4.93
2023-05-08T14:59:25.701Z,4.97
2023-05-08T15:01:52.337Z,4.90
2023-05-08T15:04:19.120Z,7.10
2023-05-08T15:06:45.782Z,3.70
2023-05-08T15:09:12.399Z,3.65
2023-05-08T15:11:38.931Z,2.35
2023-05-08T15:14:06.152Z,2.72
2023-05-08T15:16:32.776Z,3.15
2023-05-08T15:19:00.018Z,2.78
2023-05-08T15:21:27.410Z,2.22
2023-05-08T15:23:54.908Z,2.00
2023-05-08T15:26:22.390Z,1.98
2023-05-08T15:28:49.352Z,2.20
2023-05-08T15:31:16.123Z,2.38
2023-05-08T15:33:44.921Z,2.22
2023-05-08T15:36:13.383Z,2.28
2023-05-08T15:38:41.034Z,2.60
2023-05-08T15:41:08.094Z,2.58
2023-05-08T15:43:34.549Z,41.60
2023-05-08T15:46:01.193Z,11.55
2023-05-08T15:48:27.798Z,2.53
2023-05-08T15:50:54.631Z,2.17
2023-05-08T15:53:21.280Z,3.03
2023-05-08T15:55:47.880Z,3.10
2023-05-08T15:58:14.533Z,3.97
2023-05-08T16:00:45.324Z,2.65
2023-05-08T16:03:12.316Z,2.60
2023-05-08T16:05:39.622Z,2.28
2023-05-08T16:08:07.574Z,2.25
2023-05-08T16:10:34.386Z,2.25
2023-05-08T16:13:00.984Z,2.25
2023-05-08T16:15:27.549Z,2.38
2023-05-08T16:17:54.214Z,2.25
2023-05-08T16:20:20.982Z,1.83
2023-05-08T16:22:47.482Z,1.33
2023-05-08T16:25:14.537Z,2.50
2023-05-08T16:27:41.351Z,2.70
2023-05-08T16:30:08.330Z,2.00
2023-05-08T16:32:34.838Z,1.08
2023-05-08T16:35:01.315Z,1.52
2023-05-08T16:37:27.778Z,2.33
2023-05-08T16:39:54.218Z,2.67
2023-05-08T16:42:20.915Z,3.17
2023-05-08T16:44:47.490Z,1.83
2023-05-08T16:47:13.912Z,1.88
2023-05-08T16:49:40.617Z,2.08
2023-05-08T16:52:07.328Z,1.80
2023-05-08T16:54:33.990Z,1.88
2023-05-08T16:57:00.472Z,2.10
2023-05-08T16:59:26.950Z,2.42
2023-05-08T17:01:53.666Z,4.40
2023-05-08T17:04:20.122Z,2.75
2023-05-08T17:06:46.642Z,3.47
2023-05-08T17:09:13.147Z,4.22
2023-05-08T17:11:39.846Z,3.95
2023-05-08T17:14:06.444Z,4.03
2023-05-08T17:16:33.526Z,4.72
2023-05-08T17:19:00.529Z,3.60
2023-05-08T17:21:27.164Z,3.55
2023-05-08T17:23:53.725Z,3.45
2023-05-08T17:26:21.737Z,3.03
2023-05-08T17:28:48.380Z,3.03
2023-05-08T17:31:16.027Z,2.15
2023-05-08T17:33:42.612Z,1.92
2023-05-08T17:36:09.374Z,1.20
2023-05-08T17:38:38.353Z,1.20
2023-05-08T17:41:04.912Z,1.10
2023-05-08T17:43:31.527Z,1.13
2023-05-08T17:45:58.138Z,0.80
2023-05-08T17:48:24.717Z,0.60
2023-05-08T17:50:51.322Z,0.50
2023-05-08T17:53:17.883Z,0.73
2023-05-08T17:55:44.393Z,0.50
2023-05-08T17:58:10.805Z,0.77
2023-05-08T18:00:37.762Z,1.35
2023-05-08T18:03:04.678Z,2.13
2023-05-08T18:05:31.589Z,1.05
2023-05-08T18:07:58.208Z,0.60
2023-05-08T18:12:53.676Z,0.93
2023-05-08T18:15:20.224Z,0.70
2023-05-08T18:17:47.517Z,0.57
2023-05-08T18:20:14.477Z,0.77
2023-05-08T18:22:41.137Z,0.70
2023-05-08T18:25:08.134Z,2.35
2023-05-08T18:27:34.652Z,1.23
2023-05-08T18:30:01.096Z,0.63
2023-05-08T18:32:27.789Z,0.70
2023-05-08T18:34:54.431Z,1.17
2023-05-08T18:37:21.012Z,0.60
2023-05-08T18:39:47.465Z,1.00
2023-05-08T18:42:16.659Z,4.40
2023-05-08T18:44:43.195Z,0.88
2023-05-08T18:47:09.765Z,2.60
2023-05-08T18:49:36.306Z,3.42
2023-05-08T18:52:03.094Z,1.60
2023-05-08T18:54:29.521Z,1.05
2023-05-08T18:56:56.166Z,5.30
2023-05-08T18:59:22.752Z,2.58
2023-05-08T19:01:50.592Z,2.88
2023-05-08T19:04:17.180Z,0.88
2023-05-08T19:06:43.801Z,1.10
2023-05-08T19:09:10.459Z,1.23
2023-05-08T19:11:37.101Z,1.60
2023-05-08T19:14:04.005Z,1.77
2023-05-08T19:16:30.542Z,1.60
2023-05-08T19:18:57.236Z,1.83
2023-05-08T19:21:23.842Z,1.02
2023-05-08T19:23:51.002Z,2.25
2023-05-08T19:26:18.312Z,3.42
2023-05-08T19:28:44.810Z,1.30
2023-05-08T19:31:11.428Z,1.27
2023-05-08T19:33:38.023Z,1.25
2023-05-08T19:36:04.570Z,3.17
2023-05-08T19:38:31.139Z,2.00
2023-05-08T19:40:58.143Z,1.15
2023-05-08T19:43:26.089Z,1.30
2023-05-08T19:45:52.933Z,1.48
2023-05-08T19:48:20.184Z,1.17
2023-05-08T19:50:46.883Z,2.60
2023-05-08T19:53:13.624Z,1.58
2023-05-08T19:55:40.148Z,2.70
2023-05-08T19:58:06.720Z,2.38
2023-05-08T20:00:33.182Z,2.28
2023-05-08T20:02:59.731Z,3.50
2023-05-08T20:05:26.335Z,2.08
2023-05-08T20:07:52.884Z,1.35
2023-05-08T20:10:19.430Z,2.50
2023-05-08T20:12:45.960Z,1.88
2023-05-08T20:15:12.724Z,2.75
2023-05-08T20:17:39.295Z,2.88
2023-05-08T20:20:06.513Z,2.00
2023-05-08T20:22:32.969Z,1.65
2023-05-08T20:25:01.060Z,1.60
2023-05-08T20:27:28.622Z,2.03
2023-05-08T20:29:55.053Z,3.22
2023-05-08T20:32:21.635Z,2.50
2023-05-08T20:34:48.229Z,1.80
2023-05-08T20:37:16.024Z,2.22
2023-05-08T20:39:43.322Z,1.95
2023-05-08T20:42:09.765Z,2.63
2023-05-08T20:44:36.306Z,2.03
2023-05-08T20:47:02.869Z,3.47
2023-05-08T20:49:29.384Z,3.00
2023-05-08T20:51:56.068Z,5.43
2023-05-08T20:54:22.680Z,1.85
2023-05-08T20:56:49.304Z,2.25
2023-05-08T20:59:16.727Z,2.35
2023-05-08T21:01:43.465Z,2.50
2023-05-08T21:04:10.171Z,3.40
2023-05-08T21:06:36.611Z,5.07
2023-05-08T21:09:04.572Z,5.78
2023-05-08T21:11:33.247Z,5.70
2023-05-08T21:13:59.707Z,4.00
2023-05-08T21:16:26.887Z,6.57
2023-05-08T21:18:55.344Z,3.83
2023-05-08T21:21:23.330Z,5.47
2023-05-08T21:23:49.941Z,2.78
2023-05-08T21:26:16.437Z,2.63
2023-05-08T21:28:42.963Z,3.08
2023-05-08T21:31:09.464Z,6.20
2023-05-08T21:33:36.086Z,2.42
2023-05-08T21:36:02.679Z,2.33
2023-05-08T21:38:29.794Z,3.33
2023-05-08T21:40:56.331Z,2.80
2023-05-08T21:43:22.872Z,2.92
2023-05-08T21:45:49.438Z,3.28
2023-05-08T21:48:16.095Z,4.70
2023-05-08T21:50:42.697Z,3.60
2023-05-08T21:53:09.198Z,3.33
2023-05-08T21:55:35.750Z,3.65
2023-05-08T21:58:02.191Z,4.63
2023-05-08T22:00:28.923Z,3.80
2023-05-08T22:02:55.602Z,4.32
2023-05-08T22:05:23.570Z,4.50
2023-05-08T22:07:50.145Z,4.70
2023-05-08T22:10:16.829Z,5.60
2023-05-08T22:12:43.377Z,5.57
2023-05-08T22:15:25.586Z,4.80
2023-05-08T22:17:56.036Z,5.63
2023-05-08T22:20:22.661Z,6.63
2023-05-08T22:22:49.261Z,7.82
2023-05-08T22:25:16.128Z,5.13
2023-05-08T22:27:42.768Z,5.97
2023-05-08T22:30:09.495Z,5.75
2023-05-08T22:32:36.647Z,6.45
2023-05-08T22:35:03.501Z,5.88
2023-05-08T22:37:30.398Z,6.10
2023-05-08T22:39:56.944Z,5.53
2023-05-08T22:42:24.219Z,4.82
2023-05-08T22:44:51.162Z,5.05
2023-05-08T22:47:17.819Z,5.60
2023-05-08T22:49:44.271Z,4.18
2023-05-08T22:52:10.819Z,4.93
2023-05-08T22:54:37.399Z,4.18
2023-05-08T22:57:03.960Z,4.85
2023-05-08T22:59:30.507Z,4.88
2023-05-08T23:01:58.198Z,5.30
2023-05-08T23:04:25.004Z,6.43
2023-05-08T23:06:51.641Z,6.03
2023-05-08T23:09:18.179Z,4.90
2023-05-08T23:11:44.640Z,5.70
2023-05-08T23:14:11.083Z,5.68
2023-05-08T23:16:37.682Z,5.78
2023-05-08T23:19:04.633Z,5.88
2023-05-08T23:21:32.042Z,7.85
2023-05-08T23:23:58.983Z,9.35
2023-05-08T23:26:26.083Z,8.05
2023-05-08T23:28:52.660Z,7.65
2023-05-08T23:31:19.275Z,7.50
2023-05-08T23:33:45.930Z,8.05
2023-05-08T23:36:12.349Z,7.35
2023-05-08T23:38:38.879Z,9.88
2023-05-08T23:41:05.477Z,6.65
2023-05-08T23:43:32.067Z,10.88
2023-05-08T23:45:58.708Z,7.82
2023-05-08T23:48:26.509Z,7.93
2023-05-08T23:50:53.433Z,7.68
2023-05-08T23:53:20.003Z,10.18
2023-05-08T23:55:49.853Z,9.30
2023-05-08T23:58:17.368Z,10.63
